sensor_id;sensor_type;location;lat;lon;timestamp;P1;durP1;ratioP1;P2;durP2;ratioP2
79668;SDS011;69136;52.614;6.976;2023-08-06T00:00:10;7.78;;;5.85;;
79668;SDS011;69136;52.614;6.976;2023-08-06T00:02:54;8.95;;;6.18;;
79668;SDS011;69136;52.614;6.976;2023-08-06T00:05:41;5.65;;;4.43;;
79668;SDS011;69136;52.614;6.976;2023-08-06T00:08:25;8.10;;;5.57;;
79668;SDS011;69136;52.614;6.976;2023-08-06T00:11:09;8.98;;;5.55;;
79668;SDS011;69136;52.614;6.976;2023-08-06T00:13:53;6.65;;;5.50;;
79668;SDS011;69136;52.614;6.976;2023-08-06T00:16:37;8.43;;;5.80;;
79668;SDS011;69136;52.614;6.976;2023-08-06T00:19:21;6.55;;;4.93;;
79668;SDS011;69136;52.614;6.976;2023-08-06T00:22:06;7.38;;;5.45;;
79668;SDS011;69136;52.614;6.976;2023-08-06T00:24:50;7.45;;;5.32;;
79668;SDS011;69136;52.614;6.976;2023-08-06T00:27:34;7.60;;;4.47;;
79668;SDS011;69136;52.614;6.976;2023-08-06T00:30:19;7.38;;;5.15;;
79668;SDS011;69136;52.614;6.976;2023-08-06T00:33:03;10.38;;;5.95;;
79668;SDS011;69136;52.614;6.976;2023-08-06T00:35:47;9.50;;;5.50;;
79668;SDS011;69136;52.614;6.976;2023-08-06T00:38:31;9.25;;;5.15;;
79668;SDS011;69136;52.614;6.976;2023-08-06T00:41:16;5.97;;;4.50;;
79668;SDS011;69136;52.614;6.976;2023-08-06T00:43:59;8.02;;;5.75;;
79668;SDS011;69136;52.614;6.976;2023-08-06T00:46:44;9.18;;;5.50;;
79668;SDS011;69136;52.614;6.976;2023-08-06T00:49:28;5.15;;;4.10;;
79668;SDS011;69136;52.614;6.976;2023-08-06T00:52:15;7.50;;;4.70;;
79668;SDS011;69136;52.614;6.976;2023-08-06T00:54:59;8.95;;;4.70;;
79668;SDS011;69136;52.614;6.976;2023-08-06T00:57:44;4.85;;;4.18;;
79668;SDS011;69136;52.614;6.976;2023-08-06T01:00:29;6.47;;;5.05;;
79668;SDS011;69136;52.614;6.976;2023-08-06T01:03:13;10.13;;;4.80;;
79668;SDS011;69136;52.614;6.976;2023-08-06T01:05:58;8.10;;;5.40;;
79668;SDS011;69136;52.614;6.976;2023-08-06T01:08:49;5.72;;;5.13;;
79668;SDS011;69136;52.614;6.976;2023-08-06T01:12:01;7.70;;;5.15;;
79668;SDS011;69136;52.614;6.976;2023-08-06T01:15:01;6.85;;;5.20;;
79668;SDS011;69136;52.614;6.976;2023-08-06T01:17:46;7.22;;;4.93;;
79668;SDS011;69136;52.614;6.976;2023-08-06T01:20:31;9.10;;;5.57;;
79668;SDS011;69136;52.614;6.976;2023-08-06T01:23:15;9.57;;;5.80;;
79668;SDS011;69136;52.614;6.976;2023-08-06T01:31:50;6.95;;;4.78;;
79668;SDS011;69136;52.614;6.976;2023-08-06T01:34:35;8.13;;;5.15;;
79668;SDS011;69136;52.614;6.976;2023-08-06T01:37:23;5.70;;;4.32;;
79668;SDS011;69136;52.614;6.976;2023-08-06T01:40:11;6.75;;;4.47;;
79668;SDS011;69136;52.614;6.976;2023-08-06T01:42:55;7.40;;;5.03;;
79668;SDS011;69136;52.614;6.976;2023-08-06T01:45:40;7.50;;;5.07;;
79668;SDS011;69136;52.614;6.976;2023-08-06T01:48:24;5.78;;;4.18;;
79668;SDS011;69136;52.614;6.976;2023-08-06T01:51:08;7.32;;;4.57;;
79668;SDS011;69136;52.614;6.976;2023-08-06T01:53:52;8.38;;;4.88;;
79668;SDS011;69136;52.614;6.976;2023-08-06T01:56:37;6.28;;;4.13;;
79668;SDS011;69136;52.614;6.976;2023-08-06T01:59:21;5.82;;;4.43;;
79668;SDS011;69136;52.614;6.976;2023-08-06T02:02:06;6.88;;;4.57;;
79668;SDS011;69136;52.614;6.976;2023-08-06T02:04:50;8.95;;;4.97;;
79668;SDS011;69136;52.614;6.976;2023-08-06T02:07:34;6.25;;;4.68;;
79668;SDS011;69136;52.614;6.976;2023-08-06T02:10:18;6.07;;;4.53;;
79668;SDS011;69136;52.614;6.976;2023-08-06T02:13:02;8.77;;;5.50;;
79668;SDS011;69136;52.614;6.976;2023-08-06T02:15:47;6.25;;;4.65;;
79668;SDS011;69136;52.614;6.976;2023-08-06T02:18:31;6.95;;;4.72;;
79668;SDS011;69136;52.614;6.976;2023-08-06T02:21:15;5.88;;;4.38;;
79668;SDS011;69136;52.614;6.976;2023-08-06T02:23:59;9.45;;;4.95;;
79668;SDS011;69136;52.614;6.976;2023-08-06T02:26:44;9.98;;;5.10;;
79668;SDS011;69136;52.614;6.976;2023-08-06T02:29:30;9.73;;;4.70;;
79668;SDS011;69136;52.614;6.976;2023-08-06T02:32:14;7.40;;;4.60;;
79668;SDS011;69136;52.614;6.976;2023-08-06T02:34:57;6.22;;;4.32;;
79668;SDS011;69136;52.614;6.976;2023-08-06T02:37:41;7.85;;;5.15;;
79668;SDS011;69136;52.614;6.976;2023-08-06T02:40:25;6.78;;;4.13;;
79668;SDS011;69136;52.614;6.976;2023-08-06T02:43:10;7.43;;;4.57;;
79668;SDS011;69136;52.614;6.976;2023-08-06T02:46:00;8.18;;;5.65;;
79668;SDS011;69136;52.614;6.976;2023-08-06T02:48:45;7.38;;;5.38;;
79668;SDS011;69136;52.614;6.976;2023-08-06T02:51:30;5.80;;;5.05;;
79668;SDS011;69136;52.614;6.976;2023-08-06T02:54:14;8.35;;;4.55;;
79668;SDS011;69136;52.614;6.976;2023-08-06T02:56:59;5.50;;;4.20;;
79668;SDS011;69136;52.614;6.976;2023-08-06T02:59:48;8.45;;;5.18;;
79668;SDS011;69136;52.614;6.976;2023-08-06T03:02:38;5.90;;;4.30;;
79668;SDS011;69136;52.614;6.976;2023-08-06T03:08:18;8.02;;;5.35;;
79668;SDS011;69136;52.614;6.976;2023-08-06T03:11:06;6.60;;;4.50;;
79668;SDS011;69136;52.614;6.976;2023-08-06T03:13:51;6.70;;;4.53;;
79668;SDS011;69136;52.614;6.976;2023-08-06T03:16:35;7.93;;;5.25;;
79668;SDS011;69136;52.614;6.976;2023-08-06T03:19:19;8.02;;;5.47;;
79668;SDS011;69136;52.614;6.976;2023-08-06T03:22:04;8.05;;;5.35;;
79668;SDS011;69136;52.614;6.976;2023-08-06T03:24:50;6.35;;;4.50;;
79668;SDS011;69136;52.614;6.976;2023-08-06T03:27:36;7.22;;;5.20;;
79668;SDS011;69136;52.614;6.976;2023-08-06T03:30:20;9.20;;;4.70;;
79668;SDS011;69136;52.614;6.976;2023-08-06T03:33:06;7.93;;;5.68;;
79668;SDS011;69136;52.614;6.976;2023-08-06T03:35:50;8.13;;;5.15;;
79668;SDS011;69136;52.614;6.976;2023-08-06T03:38:36;6.65;;;4.70;;
79668;SDS011;69136;52.614;6.976;2023-08-06T03:41:23;9.43;;;5.88;;
79668;SDS011;69136;52.614;6.976;2023-08-06T03:44:07;6.43;;;4.65;;
79668;SDS011;69136;52.614;6.976;2023-08-06T03:46:51;7.72;;;4.88;;
79668;SDS011;69136;52.614;6.976;2023-08-06T03:49:36;6.05;;;5.13;;
79668;SDS011;69136;52.614;6.976;2023-08-06T03:52:21;6.15;;;4.97;;
79668;SDS011;69136;52.614;6.976;2023-08-06T03:55:06;6.53;;;5.07;;
79668;SDS011;69136;52.614;6.976;2023-08-06T03:57:50;6.25;;;5.03;;
79668;SDS011;69136;52.614;6.976;2023-08-06T04:00:35;6.93;;;4.22;;
79668;SDS011;69136;52.614;6.976;2023-08-06T04:03:19;6.95;;;5.03;;
79668;SDS011;69136;52.614;6.976;2023-08-06T04:06:03;6.15;;;5.38;;
79668;SDS011;69136;52.614;6.976;2023-08-06T04:08:48;6.35;;;4.35;;
79668;SDS011;69136;52.614;6.976;2023-08-06T04:11:32;7.60;;;6.00;;
79668;SDS011;69136;52.614;6.976;2023-08-06T04:14:16;5.22;;;4.10;;
79668;SDS011;69136;52.614;6.976;2023-08-06T04:17:00;7.57;;;4.88;;
79668;SDS011;69136;52.614;6.976;2023-08-06T04:19:43;6.68;;;4.13;;
79668;SDS011;69136;52.614;6.976;2023-08-06T04:22:27;6.05;;;4.18;;
79668;SDS011;69136;52.614;6.976;2023-08-06T04:25:11;6.88;;;4.35;;
79668;SDS011;69136;52.614;6.976;2023-08-06T04:27:55;7.57;;;5.00;;
79668;SDS011;69136;52.614;6.976;2023-08-06T04:30:39;6.85;;;4.10;;
79668;SDS011;69136;52.614;6.976;2023-08-06T04:33:25;6.53;;;4.68;;
79668;SDS011;69136;52.614;6.976;2023-08-06T04:36:11;7.05;;;5.63;;
79668;SDS011;69136;52.614;6.976;2023-08-06T04:38:55;7.85;;;4.90;;
79668;SDS011;69136;52.614;6.976;2023-08-06T04:41:40;5.70;;;4.72;;
79668;SDS011;69136;52.614;6.976;2023-08-06T04:44:24;7.85;;;4.80;;
79668;SDS011;69136;52.614;6.976;2023-08-06T04:47:08;5.88;;;4.57;;
79668;SDS011;69136;52.614;6.976;2023-08-06T04:49:52;8.13;;;5.88;;
79668;SDS011;69136;52.614;6.976;2023-08-06T04:52:37;6.47;;;5.32;;
79668;SDS011;69136;52.614;6.976;2023-08-06T04:55:21;7.70;;;5.50;;
79668;SDS011;69136;52.614;6.976;2023-08-06T04:58:05;11.13;;;6.95;;
79668;SDS011;69136;52.614;6.976;2023-08-06T05:00:49;8.15;;;6.32;;
79668;SDS011;69136;52.614;6.976;2023-08-06T05:03:33;6.80;;;5.75;;
79668;SDS011;69136;52.614;6.976;2023-08-06T05:06:17;6.70;;;5.63;;
79668;SDS011;69136;52.614;6.976;2023-08-06T05:09:01;8.05;;;5.55;;
79668;SDS011;69136;52.614;6.976;2023-08-06T05:11:46;8.82;;;5.78;;
79668;SDS011;69136;52.614;6.976;2023-08-06T05:14:30;8.05;;;4.97;;
79668;SDS011;69136;52.614;6.976;2023-08-06T05:17:14;8.93;;;6.18;;
79668;SDS011;69136;52.614;6.976;2023-08-06T05:19:59;6.93;;;5.30;;
79668;SDS011;69136;52.614;6.976;2023-08-06T05:22:43;9.73;;;6.90;;
79668;SDS011;69136;52.614;6.976;2023-08-06T05:25:28;8.18;;;5.38;;
79668;SDS011;69136;52.614;6.976;2023-08-06T05:28:11;14.20;;;6.97;;
79668;SDS011;69136;52.614;6.976;2023-08-06T05:30:56;12.65;;;8.15;;
79668;SDS011;69136;52.614;6.976;2023-08-06T05:33:40;8.82;;;6.75;;
79668;SDS011;69136;52.614;6.976;2023-08-06T05:36:24;8.30;;;6.60;;
79668;SDS011;69136;52.614;6.976;2023-08-06T05:39:09;9.20;;;6.53;;
79668;SDS011;69136;52.614;6.976;2023-08-06T05:41:52;12.25;;;6.72;;
79668;SDS011;69136;52.614;6.976;2023-08-06T05:44:36;8.90;;;6.38;;
79668;SDS011;69136;52.614;6.976;2023-08-06T05:47:20;7.40;;;5.93;;
79668;SDS011;69136;52.614;6.976;2023-08-06T05:50:04;7.40;;;5.20;;
79668;SDS011;69136;52.614;6.976;2023-08-06T05:52:49;7.28;;;5.78;;
79668;SDS011;69136;52.614;6.976;2023-08-06T05:55:33;8.85;;;5.78;;
79668;SDS011;69136;52.614;6.976;2023-08-06T05:58:18;8.82;;;6.25;;
79668;SDS011;69136;52.614;6.976;2023-08-06T06:01:04;7.53;;;5.95;;
79668;SDS011;69136;52.614;6.976;2023-08-06T06:03:47;9.52;;;7.03;;
79668;SDS011;69136;52.614;6.976;2023-08-06T06:06:31;9.82;;;6.90;;
79668;SDS011;69136;52.614;6.976;2023-08-06T06:09:16;9.45;;;6.80;;
79668;SDS011;69136;52.614;6.976;2023-08-06T06:12:00;10.82;;;6.13;;
79668;SDS011;69136;52.614;6.976;2023-08-06T06:14:44;8.30;;;6.95;;
79668;SDS011;69136;52.614;6.976;2023-08-06T06:17:28;10.45;;;7.15;;
79668;SDS011;69136;52.614;6.976;2023-08-06T06:20:13;9.50;;;6.47;;
79668;SDS011;69136;52.614;6.976;2023-08-06T06:22:57;10.32;;;8.45;;
79668;SDS011;69136;52.614;6.976;2023-08-06T06:25:47;12.32;;;7.40;;
79668;SDS011;69136;52.614;6.976;2023-08-06T06:28:32;9.13;;;7.70;;
79668;SDS011;69136;52.614;6.976;2023-08-06T06:31:17;9.70;;;7.57;;
79668;SDS011;69136;52.614;6.976;2023-08-06T06:34:00;11.32;;;9.05;;
79668;SDS011;69136;52.614;6.976;2023-08-06T06:36:44;13.98;;;8.20;;
79668;SDS011;69136;52.614;6.976;2023-08-06T06:39:28;11.98;;;8.70;;
79668;SDS011;69136;52.614;6.976;2023-08-06T06:42:13;13.65;;;8.05;;
79668;SDS011;69136;52.614;6.976;2023-08-06T06:45:02;11.15;;;7.03;;
79668;SDS011;69136;52.614;6.976;2023-08-06T06:47:47;12.07;;;9.25;;
79668;SDS011;69136;52.614;6.976;2023-08-06T06:50:31;10.73;;;8.30;;
79668;SDS011;69136;52.614;6.976;2023-08-06T06:53:15;13.07;;;9.35;;
79668;SDS011;69136;52.614;6.976;2023-08-06T06:56:03;10.60;;;8.48;;
79668;SDS011;69136;52.614;6.976;2023-08-06T06:58:48;16.73;;;9.13;;
79668;SDS011;69136;52.614;6.976;2023-08-06T07:01:32;10.52;;;9.13;;
79668;SDS011;69136;52.614;6.976;2023-08-06T07:04:16;12.13;;;8.77;;
79668;SDS011;69136;52.614;6.976;2023-08-06T07:07:00;13.35;;;9.88;;
79668;SDS011;69136;52.614;6.976;2023-08-06T07:09:44;12.35;;;10.25;;
79668;SDS011;69136;52.614;6.976;2023-08-06T07:12:28;13.80;;;10.30;;
79668;SDS011;69136;52.614;6.976;2023-08-06T07:15:12;16.23;;;11.98;;
79668;SDS011;69136;52.614;6.976;2023-08-06T07:17:56;13.15;;;10.73;;
79668;SDS011;69136;52.614;6.976;2023-08-06T07:20:40;12.23;;;10.25;;
79668;SDS011;69136;52.614;6.976;2023-08-06T07:23:25;13.30;;;10.88;;
79668;SDS011;69136;52.614;6.976;2023-08-06T07:26:09;13.52;;;10.52;;
79668;SDS011;69136;52.614;6.976;2023-08-06T07:28:53;14.40;;;9.40;;
79668;SDS011;69136;52.614;6.976;2023-08-06T07:31:37;12.05;;;9.73;;
79668;SDS011;69136;52.614;6.976;2023-08-06T07:34:21;13.88;;;11.20;;
79668;SDS011;69136;52.614;6.976;2023-08-06T07:37:05;13.00;;;10.52;;
79668;SDS011;69136;52.614;6.976;2023-08-06T07:39:49;13.80;;;10.52;;
79668;SDS011;69136;52.614;6.976;2023-08-06T07:42:33;12.65;;;10.13;;
79668;SDS011;69136;52.614;6.976;2023-08-06T07:45:17;11.90;;;10.15;;
79668;SDS011;69136;52.614;6.976;2023-08-06T07:48:02;11.23;;;10.02;;
79668;SDS011;69136;52.614;6.976;2023-08-06T07:50:46;14.18;;;10.85;;
79668;SDS011;69136;52.614;6.976;2023-08-06T07:53:34;15.38;;;11.07;;
79668;SDS011;69136;52.614;6.976;2023-08-06T07:56:17;12.38;;;11.02;;
79668;SDS011;69136;52.614;6.976;2023-08-06T07:59:01;14.52;;;10.88;;
79668;SDS011;69136;52.614;6.976;2023-08-06T08:01:46;12.40;;;10.02;;
79668;SDS011;69136;52.614;6.976;2023-08-06T08:04:30;14.00;;;9.57;;
79668;SDS011;69136;52.614;6.976;2023-08-06T08:07:14;11.45;;;9.85;;
79668;SDS011;69136;52.614;6.976;2023-08-06T08:09:58;14.50;;;10.88;;
79668;SDS011;69136;52.614;6.976;2023-08-06T08:12:42;12.98;;;9.65;;
79668;SDS011;69136;52.614;6.976;2023-08-06T08:15:27;12.27;;;10.07;;
79668;SDS011;69136;52.614;6.976;2023-08-06T08:18:15;11.07;;;9.93;;
79668;SDS011;69136;52.614;6.976;2023-08-06T08:20:59;11.00;;;9.88;;
79668;SDS011;69136;52.614;6.976;2023-08-06T08:23:42;12.32;;;10.40;;
79668;SDS011;69136;52.614;6.976;2023-08-06T08:26:27;10.68;;;8.88;;
79668;SDS011;69136;52.614;6.976;2023-08-06T08:29:12;9.80;;;8.73;;
79668;SDS011;69136;52.614;6.976;2023-08-06T08:31:56;11.23;;;9.02;;
79668;SDS011;69136;52.614;6.976;2023-08-06T08:34:40;13.02;;;9.82;;
79668;SDS011;69136;52.614;6.976;2023-08-06T08:37:24;14.20;;;10.27;;
79668;SDS011;69136;52.614;6.976;2023-08-06T08:40:08;12.30;;;10.15;;
79668;SDS011;69136;52.614;6.976;2023-08-06T08:42:53;11.90;;;9.35;;
79668;SDS011;69136;52.614;6.976;2023-08-06T08:45:39;10.70;;;9.30;;
79668;SDS011;69136;52.614;6.976;2023-08-06T08:48:26;10.30;;;8.52;;
79668;SDS011;69136;52.614;6.976;2023-08-06T08:51:11;9.98;;;8.98;;
79668;SDS011;69136;52.614;6.976;2023-08-06T08:53:57;10.50;;;9.13;;
79668;SDS011;69136;52.614;6.976;2023-08-06T08:56:41;10.52;;;8.18;;
79668;SDS011;69136;52.614;6.976;2023-08-06T08:59:25;9.60;;;8.20;;
79668;SDS011;69136;52.614;6.976;2023-08-06T09:02:12;11.93;;;9.10;;
79668;SDS011;69136;52.614;6.976;2023-08-06T09:05:00;11.77;;;9.20;;
79668;SDS011;69136;52.614;6.976;2023-08-06T09:07:47;9.77;;;8.27;;
79668;SDS011;69136;52.614;6.976;2023-08-06T09:10:32;8.02;;;7.15;;
79668;SDS011;69136;52.614;6.976;2023-08-06T09:13:16;8.55;;;7.28;;
79668;SDS011;69136;52.614;6.976;2023-08-06T09:16:01;9.48;;;7.97;;
79668;SDS011;69136;52.614;6.976;2023-08-06T09:18:45;10.50;;;7.95;;
79668;SDS011;69136;52.614;6.976;2023-08-06T09:21:29;8.77;;;7.55;;
79668;SDS011;69136;52.614;6.976;2023-08-06T09:24:13;9.38;;;6.60;;
79668;SDS011;69136;52.614;6.976;2023-08-06T09:26:56;9.70;;;8.45;;
79668;SDS011;69136;52.614;6.976;2023-08-06T09:29:42;8.25;;;7.00;;
79668;SDS011;69136;52.614;6.976;2023-08-06T09:32:27;7.93;;;6.13;;
79668;SDS011;69136;52.614;6.976;2023-08-06T09:35:14;7.72;;;6.10;;
79668;SDS011;69136;52.614;6.976;2023-08-06T09:38:05;7.20;;;5.57;;
79668;SDS011;69136;52.614;6.976;2023-08-06T09:40:54;7.40;;;6.70;;
79668;SDS011;69136;52.614;6.976;2023-08-06T09:43:41;9.65;;;8.65;;
79668;SDS011;69136;52.614;6.976;2023-08-06T09:46:26;9.23;;;8.30;;
79668;SDS011;69136;52.614;6.976;2023-08-06T09:49:12;9.15;;;7.43;;
79668;SDS011;69136;52.614;6.976;2023-08-06T09:51:56;11.85;;;8.00;;
79668;SDS011;69136;52.614;6.976;2023-08-06T09:54:42;8.48;;;7.32;;
79668;SDS011;69136;52.614;6.976;2023-08-06T09:57:27;12.55;;;7.38;;
79668;SDS011;69136;52.614;6.976;2023-08-06T10:00:11;7.40;;;5.60;;
79668;SDS011;69136;52.614;6.976;2023-08-06T10:03:00;5.97;;;5.25;;
79668;SDS011;69136;52.614;6.976;2023-08-06T10:05:44;6.57;;;5.78;;
79668;SDS011;69136;52.614;6.976;2023-08-06T10:08:28;8.65;;;7.85;;
79668;SDS011;69136;52.614;6.976;2023-08-06T10:11:12;8.48;;;7.57;;
79668;SDS011;69136;52.614;6.976;2023-08-06T10:14:00;8.90;;;6.57;;
79668;SDS011;69136;52.614;6.976;2023-08-06T10:16:47;9.65;;;8.30;;
79668;SDS011;69136;52.614;6.976;2023-08-06T10:19:32;11.00;;;9.93;;
79668;SDS011;69136;52.614;6.976;2023-08-06T10:22:17;9.73;;;8.73;;
79668;SDS011;69136;52.614;6.976;2023-08-06T10:25:02;10.20;;;8.55;;
79668;SDS011;69136;52.614;6.976;2023-08-06T10:30:33;12.93;;;7.60;;
79668;SDS011;69136;52.614;6.976;2023-08-06T10:33:19;7.40;;;6.55;;
79668;SDS011;69136;52.614;6.976;2023-08-06T10:36:03;7.47;;;6.68;;
79668;SDS011;69136;52.614;6.976;2023-08-06T10:38:53;6.97;;;5.78;;
79668;SDS011;69136;52.614;6.976;2023-08-06T10:41:42;7.68;;;5.57;;
79668;SDS011;69136;52.614;6.976;2023-08-06T10:44:28;5.50;;;5.00;;
79668;SDS011;69136;52.614;6.976;2023-08-06T10:47:27;5.72;;;5.07;;
79668;SDS011;69136;52.614;6.976;2023-08-06T10:50:13;6.80;;;6.10;;
79668;SDS011;69136;52.614;6.976;2023-08-06T10:53:03;5.75;;;5.25;;
79668;SDS011;69136;52.614;6.976;2023-08-06T10:55:48;7.32;;;5.10;;
79668;SDS011;69136;52.614;6.976;2023-08-06T10:58:32;7.65;;;6.18;;
79668;SDS011;69136;52.614;6.976;2023-08-06T11:01:17;7.15;;;5.78;;
79668;SDS011;69136;52.614;6.976;2023-08-06T11:04:02;7.35;;;5.63;;
79668;SDS011;69136;52.614;6.976;2023-08-06T11:06:51;6.32;;;5.63;;
79668;SDS011;69136;52.614;6.976;2023-08-06T11:09:37;6.50;;;4.95;;
79668;SDS011;69136;52.614;6.976;2023-08-06T11:12:21;7.50;;;5.00;;
79668;SDS011;69136;52.614;6.976;2023-08-06T11:15:05;5.43;;;4.40;;
79668;SDS011;69136;52.614;6.976;2023-08-06T11:17:50;6.32;;;4.45;;
79668;SDS011;69136;52.614;6.976;2023-08-06T11:20:34;5.57;;;4.85;;
79668;SDS011;69136;52.614;6.976;2023-08-06T11:23:18;5.15;;;4.70;;
79668;SDS011;69136;52.614;6.976;2023-08-06T11:26:02;5.38;;;4.88;;
79668;SDS011;69136;52.614;6.976;2023-08-06T11:28:46;7.65;;;4.90;;
79668;SDS011;69136;52.614;6.976;2023-08-06T11:31:30;4.95;;;4.45;;
79668;SDS011;69136;52.614;6.976;2023-08-06T11:34:14;5.25;;;4.75;;
79668;SDS011;69136;52.614;6.976;2023-08-06T11:37:02;4.95;;;4.32;;
79668;SDS011;69136;52.614;6.976;2023-08-06T11:39:48;4.65;;;4.25;;
79668;SDS011;69136;52.614;6.976;2023-08-06T11:42:33;5.15;;;3.85;;
79668;SDS011;69136;52.614;6.976;2023-08-06T11:45:16;5.45;;;3.90;;
79668;SDS011;69136;52.614;6.976;2023-08-06T11:48:06;5.75;;;4.30;;
79668;SDS011;69136;52.614;6.976;2023-08-06T11:50:55;4.97;;;4.35;;
79668;SDS011;69136;52.614;6.976;2023-08-06T11:53:41;4.55;;;4.13;;
79668;SDS011;69136;52.614;6.976;2023-08-06T11:56:25;6.72;;;4.53;;
79668;SDS011;69136;52.614;6.976;2023-08-06T11:59:10;4.10;;;3.65;;
79668;SDS011;69136;52.614;6.976;2023-08-06T12:01:54;4.45;;;3.92;;
79668;SDS011;69136;52.614;6.976;2023-08-06T12:08:02;7.05;;;4.18;;
79668;SDS011;69136;52.614;6.976;2023-08-06T12:10:47;4.18;;;3.75;;
79668;SDS011;69136;52.614;6.976;2023-08-06T12:13:31;4.57;;;3.90;;
79668;SDS011;69136;52.614;6.976;2023-08-06T12:16:15;5.88;;;3.53;;
79668;SDS011;69136;52.614;6.976;2023-08-06T12:19:01;3.95;;;3.55;;
79668;SDS011;69136;52.614;6.976;2023-08-06T12:21:45;4.43;;;3.78;;
79668;SDS011;69136;52.614;6.976;2023-08-06T12:24:30;4.82;;;4.20;;
79668;SDS011;69136;52.614;6.976;2023-08-06T12:27:15;6.95;;;4.38;;
79668;SDS011;69136;52.614;6.976;2023-08-06T12:30:02;5.03;;;4.53;;
79668;SDS011;69136;52.614;6.976;2023-08-06T12:32:49;4.30;;;3.60;;
79668;SDS011;69136;52.614;6.976;2023-08-06T12:35:35;4.20;;;3.58;;
79668;SDS011;69136;52.614;6.976;2023-08-06T12:38:19;4.65;;;3.45;;
79668;SDS011;69136;52.614;6.976;2023-08-06T12:41:03;5.80;;;3.88;;
79668;SDS011;69136;52.614;6.976;2023-08-06T12:43:47;4.45;;;3.22;;
79668;SDS011;69136;52.614;6.976;2023-08-06T12:46:31;6.10;;;3.00;;
79668;SDS011;69136;52.614;6.976;2023-08-06T12:49:15;2.88;;;2.30;;
79668;SDS011;69136;52.614;6.976;2023-08-06T12:51:59;3.17;;;2.85;;
79668;SDS011;69136;52.614;6.976;2023-08-06T12:54:46;2.42;;;2.17;;
79668;SDS011;69136;52.614;6.976;2023-08-06T12:57:29;3.63;;;2.90;;
79668;SDS011;69136;52.614;6.976;2023-08-06T13:00:14;2.75;;;2.30;;
79668;SDS011;69136;52.614;6.976;2023-08-06T13:02:58;2.85;;;2.55;;
79668;SDS011;69136;52.614;6.976;2023-08-06T13:05:42;3.28;;;2.90;;
79668;SDS011;69136;52.614;6.976;2023-08-06T13:08:28;2.47;;;2.28;;
79668;SDS011;69136;52.614;6.976;2023-08-06T13:11:12;3.85;;;2.70;;
79668;SDS011;69136;52.614;6.976;2023-08-06T13:14:03;2.60;;;2.40;;
79668;SDS011;69136;52.614;6.976;2023-08-06T13:16:47;3.13;;;2.30;;
79668;SDS011;69136;52.614;6.976;2023-08-06T13:19:31;2.20;;;2.00;;
79668;SDS011;69136;52.614;6.976;2023-08-06T13:22:16;3.63;;;1.95;;
79668;SDS011;69136;52.614;6.976;2023-08-06T13:25:00;2.28;;;1.92;;
79668;SDS011;69136;52.614;6.976;2023-08-06T13:27:43;2.67;;;2.22;;
79668;SDS011;69136;52.614;6.976;2023-08-06T13:30:29;2.40;;;2.20;;
79668;SDS011;69136;52.614;6.976;2023-08-06T13:33:13;3.15;;;2.50;;
79668;SDS011;69136;52.614;6.976;2023-08-06T13:35:58;3.30;;;2.20;;
79668;SDS011;69136;52.614;6.976;2023-08-06T13:38:42;2.92;;;2.40;;
79668;SDS011;69136;52.614;6.976;2023-08-06T13:41:26;3.08;;;2.60;;
79668;SDS011;69136;52.614;6.976;2023-08-06T13:44:10;2.70;;;2.40;;
79668;SDS011;69136;52.614;6.976;2023-08-06T13:46:55;2.85;;;2.10;;
79668;SDS011;69136;52.614;6.976;2023-08-06T13:49:38;2.88;;;2.50;;
79668;SDS011;69136;52.614;6.976;2023-08-06T13:52:24;2.70;;;2.50;;
79668;SDS011;69136;52.614;6.976;2023-08-06T13:55:09;2.50;;;2.30;;
79668;SDS011;69136;52.614;6.976;2023-08-06T13:57:53;2.60;;;2.35;;
79668;SDS011;69136;52.614;6.976;2023-08-06T14:00:37;2.53;;;2.30;;
79668;SDS011;69136;52.614;6.976;2023-08-06T14:03:22;3.53;;;2.40;;
79668;SDS011;69136;52.614;6.976;2023-08-06T14:06:05;4.30;;;2.63;;
79668;SDS011;69136;52.614;6.976;2023-08-06T14:08:49;3.65;;;2.40;;
79668;SDS011;69136;52.614;6.976;2023-08-06T14:11:33;2.60;;;2.13;;
79668;SDS011;69136;52.614;6.976;2023-08-06T14:14:17;3.22;;;2.10;;
79668;SDS011;69136;52.614;6.976;2023-08-06T14:17:02;2.90;;;2.28;;
79668;SDS011;69136;52.614;6.976;2023-08-06T14:19:45;3.97;;;1.92;;
79668;SDS011;69136;52.614;6.976;2023-08-06T14:22:32;2.83;;;2.00;;
79668;SDS011;69136;52.614;6.976;2023-08-06T14:25:16;2.67;;;1.98;;
79668;SDS011;69136;52.614;6.976;2023-08-06T14:28:00;2.38;;;2.17;;
79668;SDS011;69136;52.614;6.976;2023-08-06T14:30:44;3.00;;;2.10;;
79668;SDS011;69136;52.614;6.976;2023-08-06T14:33:28;2.20;;;1.60;;
79668;SDS011;69136;52.614;6.976;2023-08-06T14:36:12;2.78;;;2.28;;
79668;SDS011;69136;52.614;6.976;2023-08-06T14:38:56;2.38;;;2.17;;
79668;SDS011;69136;52.614;6.976;2023-08-06T14:41:40;2.00;;;1.80;;
79668;SDS011;69136;52.614;6.976;2023-08-06T14:44:24;4.70;;;1.98;;
79668;SDS011;69136;52.614;6.976;2023-08-06T14:47:08;3.00;;;1.75;;
79668;SDS011;69136;52.614;6.976;2023-08-06T14:49:51;3.05;;;1.92;;
79668;SDS011;69136;52.614;6.976;2023-08-06T14:52:35;3.33;;;1.70;;
79668;SDS011;69136;52.614;6.976;2023-08-06T14:55:26;2.33;;;2.00;;
79668;SDS011;69136;52.614;6.976;2023-08-06T14:58:10;3.90;;;2.03;;
79668;SDS011;69136;52.614;6.976;2023-08-06T15:00:54;2.53;;;2.17;;
79668;SDS011;69136;52.614;6.976;2023-08-06T15:03:38;4.28;;;2.45;;
79668;SDS011;69136;52.614;6.976;2023-08-06T15:06:22;2.50;;;2.30;;
79668;SDS011;69136;52.614;6.976;2023-08-06T15:09:07;2.30;;;2.10;;
79668;SDS011;69136;52.614;6.976;2023-08-06T15:11:51;3.08;;;2.10;;
79668;SDS011;69136;52.614;6.976;2023-08-06T15:14:35;2.78;;;2.20;;
79668;SDS011;69136;52.614;6.976;2023-08-06T15:17:19;4.50;;;2.70;;
79668;SDS011;69136;52.614;6.976;2023-08-06T15:20:03;3.10;;;2.40;;
79668;SDS011;69136;52.614;6.976;2023-08-06T15:22:48;2.97;;;2.30;;
79668;SDS011;69136;52.614;6.976;2023-08-06T15:25:32;3.13;;;2.10;;
79668;SDS011;69136;52.614;6.976;2023-08-06T15:28:16;3.25;;;2.13;;
79668;SDS011;69136;52.614;6.976;2023-08-06T15:31:00;3.05;;;2.58;;
79668;SDS011;69136;52.614;6.976;2023-08-06T15:33:45;4.13;;;2.42;;
79668;SDS011;69136;52.614;6.976;2023-08-06T15:36:29;2.63;;;2.30;;
79668;SDS011;69136;52.614;6.976;2023-08-06T15:39:12;2.95;;;1.92;;
79668;SDS011;69136;52.614;6.976;2023-08-06T15:41:56;3.22;;;2.47;;
79668;SDS011;69136;52.614;6.976;2023-08-06T15:44:41;3.08;;;2.78;;
79668;SDS011;69136;52.614;6.976;2023-08-06T15:47:25;4.70;;;3.58;;
79668;SDS011;69136;52.614;6.976;2023-08-06T15:50:09;3.53;;;2.72;;
79668;SDS011;69136;52.614;6.976;2023-08-06T15:52:54;3.00;;;2.35;;
79668;SDS011;69136;52.614;6.976;2023-08-06T15:55:38;5.47;;;2.10;;
79668;SDS011;69136;52.614;6.976;2023-08-06T15:58:22;2.45;;;1.80;;
79668;SDS011;69136;52.614;6.976;2023-08-06T16:01:06;2.63;;;2.20;;
79668;SDS011;69136;52.614;6.976;2023-08-06T16:03:50;4.47;;;2.50;;
79668;SDS011;69136;52.614;6.976;2023-08-06T16:06:34;3.67;;;2.42;;
79668;SDS011;69136;52.614;6.976;2023-08-06T16:09:18;3.60;;;3.10;;
79668;SDS011;69136;52.614;6.976;2023-08-06T16:12:02;3.95;;;3.13;;
79668;SDS011;69136;52.614;6.976;2023-08-06T16:14:47;4.90;;;4.07;;
79668;SDS011;69136;52.614;6.976;2023-08-06T16:17:32;5.65;;;3.80;;
79668;SDS011;69136;52.614;6.976;2023-08-06T16:20:16;4.70;;;3.80;;
79668;SDS011;69136;52.614;6.976;2023-08-06T16:23:00;5.63;;;4.03;;
79668;SDS011;69136;52.614;6.976;2023-08-06T16:25:44;4.72;;;3.90;;
79668;SDS011;69136;52.614;6.976;2023-08-06T16:28:31;5.45;;;4.28;;
79668;SDS011;69136;52.614;6.976;2023-08-06T16:31:15;6.18;;;4.20;;
79668;SDS011;69136;52.614;6.976;2023-08-06T16:33:59;5.90;;;3.58;;
79668;SDS011;69136;52.614;6.976;2023-08-06T16:36:43;6.05;;;4.20;;
79668;SDS011;69136;52.614;6.976;2023-08-06T16:39:27;4.95;;;3.92;;
79668;SDS011;69136;52.614;6.976;2023-08-06T16:42:13;5.93;;;4.07;;